sensor_id;sensor_type;location;lat;lon;timestamp;temperature;humidity
30467;DHT22;17258;52.560;13.046;2023-02-15T00:01:07;6.00;63.50
30467;DHT22;17258;52.560;13.046;2023-02-15T00:11:12;5.90;63.50
30467;DHT22;17258;52.560;13.046;2023-02-15T00:21:14;5.90;63.70
30467;DHT22;17258;52.560;13.046;2023-02-15T00:31:15;5.80;63.60
30467;DHT22;17258;52.560;13.046;2023-02-15T00:41:16;5.70;64.30
30467;DHT22;17258;52.560;13.046;2023-02-15T00:51:17;5.60;63.60
30467;DHT22;17258;52.560;13.046;2023-02-15T01:01:19;5.50;63.70
30467;DHT22;17258;52.560;13.046;2023-02-15T01:11:22;5.50;63.70
30467;DHT22;17258;52.560;13.046;2023-02-15T01:21:25;5.40;63.70
30467;DHT22;17258;52.560;13.046;2023-02-15T01:31:26;5.40;63.70
30467;DHT22;17258;52.560;13.046;2023-02-15T01:41:26;5.30;63.70
30467;DHT22;17258;52.560;13.046;2023-02-15T01:51:30;5.20;63.70
30467;DHT22;17258;52.560;13.046;2023-02-15T02:01:31;5.20;63.70
30467;DHT22;17258;52.560;13.046;2023-02-15T02:11:32;5.10;63.70
30467;DHT22;17258;52.560;13.046;2023-02-15T02:32:43;5.00;63.70
30467;DHT22;17258;52.560;13.046;2023-02-15T02:42:55;4.90;64.00
30467;DHT22;17258;52.560;13.046;2023-02-15T02:52:59;4.90;63.90
30467;DHT22;17258;52.560;13.046;2023-02-15T03:03:07;4.80;63.80
30467;DHT22;17258;52.560;13.046;2023-02-15T03:13:17;4.70;63.80
30467;DHT22;17258;52.560;13.046;2023-02-15T03:23:21;4.70;63.80
30467;DHT22;17258;52.560;13.046;2023-02-15T03:33:23;4.60;63.80
30467;DHT22;17258;52.560;13.046;2023-02-15T03:43:45;4.60;63.80
30467;DHT22;17258;52.560;13.046;2023-02-15T03:53:59;4.50;63.80
30467;DHT22;17258;52.560;13.046;2023-02-15T04:04:07;4.50;63.90
30467;DHT22;17258;52.560;13.046;2023-02-15T04:14:10;4.40;63.80
30467;DHT22;17258;52.560;13.046;2023-02-15T04:24:30;4.40;63.80
30467;DHT22;17258;52.560;13.046;2023-02-15T04:34:49;4.30;63.80
30467;DHT22;17258;52.560;13.046;2023-02-15T04:44:51;4.30;63.80
30467;DHT22;17258;52.560;13.046;2023-02-15T04:54:52;4.20;63.80
30467;DHT22;17258;52.560;13.046;2023-02-15T05:04:52;4.20;63.80
30467;DHT22;17258;52.560;13.046;2023-02-15T05:14:53;4.10;63.80
30467;DHT22;17258;52.560;13.046;2023-02-15T05:24:54;4.10;63.80
30467;DHT22;17258;52.560;13.046;2023-02-15T05:35:14;4.10;63.90
30467;DHT22;17258;52.560;13.046;2023-02-15T05:45:16;4.00;63.80
30467;DHT22;17258;52.560;13.046;2023-02-15T05:55:16;4.00;63.90
30467;DHT22;17258;52.560;13.046;2023-02-15T06:05:17;3.90;63.90
30467;DHT22;17258;52.560;13.046;2023-02-15T06:15:18;3.90;63.90
30467;DHT22;17258;52.560;13.046;2023-02-15T06:25:18;3.90;64.10
30467;DHT22;17258;52.560;13.046;2023-02-15T06:35:19;3.90;64.30
30467;DHT22;17258;52.560;13.046;2023-02-15T06:45:20;4.00;64.60
30467;DHT22;17258;52.560;13.046;2023-02-15T06:55:21;4.10;64.80
30467;DHT22;17258;52.560;13.046;2023-02-15T07:05:23;4.30;65.00
30467;DHT22;17258;52.560;13.046;2023-02-15T07:15:24;4.50;65.20
30467;DHT22;17258;52.560;13.046;2023-02-15T07:25:25;4.70;65.20
30467;DHT22;17258;52.560;13.046;2023-02-15T07:35:25;4.90;65.30
30467;DHT22;17258;52.560;13.046;2023-02-15T07:45:26;5.00;65.40
30467;DHT22;17258;52.560;13.046;2023-02-15T07:55:27;5.20;65.40
30467;DHT22;17258;52.560;13.046;2023-02-15T08:05:28;5.40;65.50
30467;DHT22;17258;52.560;13.046;2023-02-15T08:15:29;5.60;65.50
30467;DHT22;17258;52.560;13.046;2023-02-15T08:25:29;5.80;65.50
30467;DHT22;17258;52.560;13.046;2023-02-15T08:35:30;5.90;65.50
30467;DHT22;17258;52.560;13.046;2023-02-15T08:45:31;6.10;65.60
30467;DHT22;17258;52.560;13.046;2023-02-15T08:55:32;6.20;65.60
30467;DHT22;17258;52.560;13.046;2023-02-15T09:05:33;6.40;66.40
30467;DHT22;17258;52.560;13.046;2023-02-15T09:15:33;6.60;65.80
30467;DHT22;17258;52.560;13.046;2023-02-15T09:25:36;6.80;65.80
30467;DHT22;17258;52.560;13.046;2023-02-15T09:35:37;7.00;65.90
30467;DHT22;17258;52.560;13.046;2023-02-15T09:45:58;7.20;66.00
30467;DHT22;17258;52.560;13.046;2023-02-15T09:56:39;7.40;66.20
30467;DHT22;17258;52.560;13.046;2023-02-15T10:06:52;7.60;66.20
30467;DHT22;17258;52.560;13.046;2023-02-15T10:17:30;7.90;65.90
30467;DHT22;17258;52.560;13.046;2023-02-15T10:27:54;8.00;66.00
30467;DHT22;17258;52.560;13.046;2023-02-15T10:38:10;8.20;65.80
30467;DHT22;17258;52.560;13.046;2023-02-15T10:59:45;8.60;66.10
30467;DHT22;17258;52.560;13.046;2023-02-15T11:10:18;8.80;66.10
30467;DHT22;17258;52.560;13.046;2023-02-15T11:20:36;9.00;66.10
30467;DHT22;17258;52.560;13.046;2023-02-15T11:30:45;9.20;66.10
30467;DHT22;17258;52.560;13.046;2023-02-15T11:40:56;9.40;66.00
30467;DHT22;17258;52.560;13.046;2023-02-15T11:50:59;9.70;66.00
30467;DHT22;17258;52.560;13.046;2023-02-15T12:11:28;10.00;65.70
30467;DHT22;17258;52.560;13.046;2023-02-15T12:21:38;10.10;65.60
30467;DHT22;17258;52.560;13.046;2023-02-15T12:31:47;10.30;65.80
30467;DHT22;17258;52.560;13.046;2023-02-15T12:51:59;10.80;66.40
30467;DHT22;17258;52.560;13.046;2023-02-15T13:02:06;11.10;66.70
30467;DHT22;17258;52.560;13.046;2023-02-15T13:12:22;11.60;66.80
30467;DHT22;17258;52.560;13.046;2023-02-15T13:22:33;12.00;66.50
30467;DHT22;17258;52.560;13.046;2023-02-15T13:32:42;12.30;66.30
30467;DHT22;17258;52.560;13.046;2023-02-15T13:42:50;12.60;66.30
30467;DHT22;17258;52.560;13.046;2023-02-15T14:04:13;13.20;65.60
30467;DHT22;17258;52.560;13.046;2023-02-15T14:14:14;13.50;65.60
30467;DHT22;17258;52.560;13.046;2023-02-15T14:24:42;13.70;65.20
30467;DHT22;17258;52.560;13.046;2023-02-15T14:34:52;13.90;65.20
30467;DHT22;17258;52.560;13.046;2023-02-15T14:45:22;14.00;65.00
30467;DHT22;17258;52.560;13.046;2023-02-15T14:55:37;14.10;64.70
30467;DHT22;17258;52.560;13.046;2023-02-15T15:05:48;14.20;64.70
30467;DHT22;17258;52.560;13.046;2023-02-15T15:15:53;14.20;64.20
30467;DHT22;17258;52.560;13.046;2023-02-15T15:26:20;14.20;64.30
30467;DHT22;17258;52.560;13.046;2023-02-15T15:36:40;14.20;64.00
30467;DHT22;17258;52.560;13.046;2023-02-15T15:57:33;14.00;63.70
30467;DHT22;17258;52.560;13.046;2023-02-15T16:07:35;13.90;63.40
30467;DHT22;17258;52.560;13.046;2023-02-15T16:17:36;13.70;64.00
30467;DHT22;17258;52.560;13.046;2023-02-15T16:27:38;13.40;62.80
30467;DHT22;17258;52.560;13.046;2023-02-15T16:37:41;13.10;62.60
30467;DHT22;17258;52.560;13.046;2023-02-15T16:47:45;12.70;62.70
30467;DHT22;17258;52.560;13.046;2023-02-15T16:57:48;12.40;62.50
30467;DHT22;17258;52.560;13.046;2023-02-15T17:08:14;12.10;62.70
30467;DHT22;17258;52.560;13.046;2023-02-15T17:18:22;11.70;62.50
30467;DHT22;17258;52.560;13.046;2023-02-15T17:28:26;11.40;62.70
30467;DHT22;17258;52.560;13.046;2023-02-15T17:38:28;11.10;62.70
30467;DHT22;17258;52.560;13.046;2023-02-15T17:48:34;10.80;62.70
30467;DHT22;17258;52.560;13.046;2023-02-15T17:58:38;10.50;62.70
30467;DHT22;17258;52.560;13.046;2023-02-15T18:08:39;10.20;62.70
30467;DHT22;17258;52.560;13.046;2023-02-15T18:18:58;9.90;62.90
30467;DHT22;17258;52.560;13.046;2023-02-15T18:28:59;9.60;62.90
30467;DHT22;17258;52.560;13.046;2023-02-15T18:39:00;9.40;62.90
30467;DHT22;17258;52.560;13.046;2023-02-15T18:49:02;9.10;63.00
30467;DHT22;17258;52.560;13.046;2023-02-15T18:59:03;8.80;63.00
30467;DHT22;17258;52.560;13.046;2023-02-15T19:09:03;8.60;63.10
30467;DHT22;17258;52.560;13.046;2023-02-15T19:19:04;8.40;63.10
30467;DHT22;17258;52.560;13.046;2023-02-15T19:29:05;8.20;63.10
30467;DHT22;17258;52.560;13.046;2023-02-15T19:39:54;8.00;63.20
30467;DHT22;17258;52.560;13.046;2023-02-15T19:49:39;7.90;63.30
30467;DHT22;17258;52.560;13.046;2023-02-15T19:59:41;7.70;63.30
30467;DHT22;17258;52.560;13.046;2023-02-15T20:09:41;7.50;63.20
30467;DHT22;17258;52.560;13.046;2023-02-15T20:19:43;7.30;63.30
30467;DHT22;17258;52.560;13.046;2023-02-15T20:29:45;7.20;63.30
30467;DHT22;17258;52.560;13.046;2023-02-15T20:39:46;7.10;63.30
30467;DHT22;17258;52.560;13.046;2023-02-15T20:49:47;6.90;63.20
30467;DHT22;17258;52.560;13.046;2023-02-15T20:59:47;6.70;63.20
30467;DHT22;17258;52.560;13.046;2023-02-15T21:09:48;6.60;63.40
30467;DHT22;17258;52.560;13.046;2023-02-15T21:19:49;6.50;63.60
30467;DHT22;17258;52.560;13.046;2023-02-15T21:29:49;6.40;63.60
30467;DHT22;17258;52.560;13.046;2023-02-15T21:39:50;6.30;63.40
30467;DHT22;17258;52.560;13.046;2023-02-15T21:49:51;6.20;63.50
30467;DHT22;17258;52.560;13.046;2023-02-15T21:59:52;6.10;63.70
30467;DHT22;17258;52.560;13.046;2023-02-15T22:09:52;6.00;63.80
30467;DHT22;17258;52.560;13.046;2023-02-15T22:19:53;6.00;63.80
30467;DHT22;17258;52.560;13.046;2023-02-15T22:41:10;5.80;64.00
30467;DHT22;17258;52.560;13.046;2023-02-15T22:51:12;5.80;64.00
30467;DHT22;17258;52.560;13.046;2023-02-15T23:01:31;5.70;64.00
30467;DHT22;17258;52.560;13.046;2023-02-15T23:11:33;5.70;64.00
30467;DHT22;17258;52.560;13.046;2023-02-15T23:21:34;5.70;64.00
30467;DHT22;17258;52.560;13.046;2023-02-15T23:31:35;5.60;64.00
30467;DHT22;17258;52.560;13.046;2023-02-15T23:41:37;5.60;64.10
30467;DHT22;17258;52.560;13.046;2023-02-15T23:51:38;5.50;64.00
